sensor_id;sensor_type;location;lat;lon;timestamp;P1;durP1;ratioP1;P2;durP2;ratioP2
40707;SDS011;26392;42.696;23.350;2022-09-23T00:01:31;10.75;;;6.30;;
40707;SDS011;26392;42.696;23.350;2022-09-23T00:03:59;11.23;;;6.30;;
40707;SDS011;26392;42.696;23.350;2022-09-23T00:06:25;8.75;;;6.07;;
40707;SDS011;26392;42.696;23.350;2022-09-23T00:08:53;12.68;;;7.47;;
40707;SDS011;26392;42.696;23.350;2022-09-23T00:11:26;10.73;;;7.03;;
40707;SDS011;26392;42.696;23.350;2022-09-23T00:13:53;16.25;;;7.47;;
40707;SDS011;26392;42.696;23.350;2022-09-23T00:16:24;14.52;;;8.43;;
40707;SDS011;26392;42.696;23.350;2022-09-23T00:18:56;13.98;;;7.93;;
40707;SDS011;26392;42.696;23.350;2022-09-23T00:21:22;16.17;;;8.77;;
40707;SDS011;26392;42.696;23.350;2022-09-23T00:23:49;15.45;;;8.27;;
40707;SDS011;26392;42.696;23.350;2022-09-23T00:26:16;17.17;;;8.38;;
40707;SDS011;26392;42.696;23.350;2022-09-23T00:28:43;15.35;;;8.35;;
40707;SDS011;26392;42.696;23.350;2022-09-23T00:31:18;14.30;;;8.27;;
40707;SDS011;26392;42.696;23.350;2022-09-23T00:33:45;17.55;;;8.98;;
40707;SDS011;26392;42.696;23.350;2022-09-23T00:36:12;16.42;;;9.48;;
40707;SDS011;26392;42.696;23.350;2022-09-23T00:38:39;16.88;;;9.20;;
40707;SDS011;26392;42.696;23.350;2022-09-23T00:41:05;18.02;;;7.95;;
40707;SDS011;26392;42.696;23.350;2022-09-23T00:43:41;14.40;;;8.23;;
40707;SDS011;26392;42.696;23.350;2022-09-23T00:46:11;15.02;;;8.23;;
40707;SDS011;26392;42.696;23.350;2022-09-23T00:48:41;15.60;;;8.85;;
40707;SDS011;26392;42.696;23.350;2022-09-23T00:51:08;18.38;;;9.20;;
40707;SDS011;26392;42.696;23.350;2022-09-23T00:53:38;19.13;;;9.30;;
40707;SDS011;26392;42.696;23.350;2022-09-23T00:56:06;17.67;;;10.18;;
40707;SDS011;26392;42.696;23.350;2022-09-23T00:58:34;17.33;;;9.77;;
40707;SDS011;26392;42.696;23.350;2022-09-23T01:01:02;18.30;;;9.90;;
40707;SDS011;26392;42.696;23.350;2022-09-23T01:03:28;17.75;;;9.18;;
40707;SDS011;26392;42.696;23.350;2022-09-23T01:05:53;21.00;;;10.13;;
40707;SDS011;26392;42.696;23.350;2022-09-23T01:08:20;20.33;;;9.88;;
40707;SDS011;26392;42.696;23.350;2022-09-23T01:29:48;22.38;;;11.40;;
40707;SDS011;26392;42.696;23.350;2022-09-23T01:45:54;23.27;;;11.85;;
40707;SDS011;26392;42.696;23.350;2022-09-23T01:51:03;20.15;;;10.63;;
40707;SDS011;26392;42.696;23.350;2022-09-23T01:56:27;21.00;;;10.50;;
40707;SDS011;26392;42.696;23.350;2022-09-23T02:01:43;19.00;;;10.43;;
40707;SDS011;26392;42.696;23.350;2022-09-23T02:04:19;19.35;;;10.02;;
40707;SDS011;26392;42.696;23.350;2022-09-23T02:07:00;20.13;;;9.77;;
40707;SDS011;26392;42.696;23.350;2022-09-23T02:09:34;20.10;;;10.95;;
40707;SDS011;26392;42.696;23.350;2022-09-23T02:12:07;18.75;;;9.52;;
40707;SDS011;26392;42.696;23.350;2022-09-23T02:14:40;22.85;;;10.32;;
40707;SDS011;26392;42.696;23.350;2022-09-23T02:17:11;19.80;;;10.07;;
40707;SDS011;26392;42.696;23.350;2022-09-23T02:19:44;16.08;;;9.05;;
40707;SDS011;26392;42.696;23.350;2022-09-23T02:22:16;18.17;;;9.98;;
40707;SDS011;26392;42.696;23.350;2022-09-23T02:24:45;17.90;;;10.45;;
40707;SDS011;26392;42.696;23.350;2022-09-23T02:28:12;19.27;;;9.88;;
40707;SDS011;26392;42.696;23.350;2022-09-23T02:30:25;21.20;;;10.00;;
40707;SDS011;26392;42.696;23.350;2022-09-23T02:38:42;18.77;;;8.98;;
40707;SDS011;26392;42.696;23.350;2022-09-23T02:46:23;15.88;;;8.88;;
40707;SDS011;26392;42.696;23.350;2022-09-23T02:48:51;13.48;;;7.95;;
40707;SDS011;26392;42.696;23.350;2022-09-23T02:51:20;14.70;;;8.25;;
40707;SDS011;26392;42.696;23.350;2022-09-23T02:53:50;12.93;;;5.90;;
40707;SDS011;26392;42.696;23.350;2022-09-23T02:56:17;17.27;;;5.88;;
40707;SDS011;26392;42.696;23.350;2022-09-23T02:58:44;9.60;;;5.15;;
40707;SDS011;26392;42.696;23.350;2022-09-23T03:18:16;8.47;;;5.07;;
40707;SDS011;26392;42.696;23.350;2022-09-23T03:21:00;14.23;;;6.13;;
40707;SDS011;26392;42.696;23.350;2022-09-23T03:23:34;12.18;;;5.93;;
40707;SDS011;26392;42.696;23.350;2022-09-23T03:26:12;11.20;;;5.90;;
40707;SDS011;26392;42.696;23.350;2022-09-23T03:28:42;10.13;;;5.97;;
40707;SDS011;26392;42.696;23.350;2022-09-23T03:31:12;14.30;;;7.38;;
40707;SDS011;26392;42.696;23.350;2022-09-23T03:33:40;10.23;;;6.47;;
40707;SDS011;26392;42.696;23.350;2022-09-23T03:36:11;15.75;;;7.00;;
40707;SDS011;26392;42.696;23.350;2022-09-23T03:39:07;10.95;;;6.72;;
40707;SDS011;26392;42.696;23.350;2022-09-23T03:41:37;12.98;;;7.03;;
40707;SDS011;26392;42.696;23.350;2022-09-23T03:44:15;10.93;;;6.90;;
40707;SDS011;26392;42.696;23.350;2022-09-23T03:46:41;16.05;;;7.32;;
40707;SDS011;26392;42.696;23.350;2022-09-23T03:51:41;11.63;;;7.07;;
40707;SDS011;26392;42.696;23.350;2022-09-23T03:54:06;14.40;;;7.60;;
40707;SDS011;26392;42.696;23.350;2022-09-23T03:56:31;15.23;;;7.60;;
40707;SDS011;26392;42.696;23.350;2022-09-23T03:58:57;18.40;;;7.43;;
40707;SDS011;26392;42.696;23.350;2022-09-23T04:01:22;16.77;;;7.13;;
40707;SDS011;26392;42.696;23.350;2022-09-23T04:03:47;11.77;;;7.00;;
40707;SDS011;26392;42.696;23.350;2022-09-23T04:06:13;13.70;;;7.75;;
40707;SDS011;26392;42.696;23.350;2022-09-23T04:08:38;13.20;;;7.18;;
40707;SDS011;26392;42.696;23.350;2022-09-23T04:11:22;17.48;;;9.35;;
40707;SDS011;26392;42.696;23.350;2022-09-23T04:13:47;17.38;;;7.78;;
40707;SDS011;26392;42.696;23.350;2022-09-23T04:16:13;19.88;;;8.00;;
40707;SDS011;26392;42.696;23.350;2022-09-23T04:18:38;15.57;;;9.00;;
40707;SDS011;26392;42.696;23.350;2022-09-23T04:21:03;22.10;;;9.05;;
40707;SDS011;26392;42.696;23.350;2022-09-23T04:23:29;20.92;;;8.50;;
40707;SDS011;26392;42.696;23.350;2022-09-23T04:25:54;19.67;;;9.02;;
40707;SDS011;26392;42.696;23.350;2022-09-23T04:28:20;21.23;;;9.32;;
40707;SDS011;26392;42.696;23.350;2022-09-23T04:30:46;19.50;;;10.02;;
40707;SDS011;26392;42.696;23.350;2022-09-23T04:33:13;23.45;;;9.98;;
40707;SDS011;26392;42.696;23.350;2022-09-23T04:35:39;22.35;;;10.43;;
40707;SDS011;26392;42.696;23.350;2022-09-23T04:38:07;24.60;;;10.63;;
40707;SDS011;26392;42.696;23.350;2022-09-23T04:40:34;20.50;;;10.77;;
40707;SDS011;26392;42.696;23.350;2022-09-23T04:43:00;19.80;;;10.23;;
40707;SDS011;26392;42.696;23.350;2022-09-23T04:45:26;27.02;;;10.77;;
40707;SDS011;26392;42.696;23.350;2022-09-23T04:47:51;21.90;;;10.43;;
40707;SDS011;26392;42.696;23.350;2022-09-23T04:50:17;25.63;;;10.70;;
40707;SDS011;26392;42.696;23.350;2022-09-23T04:52:42;20.85;;;10.60;;
40707;SDS011;26392;42.696;23.350;2022-09-23T04:55:08;20.48;;;9.65;;
40707;SDS011;26392;42.696;23.350;2022-09-23T04:57:34;21.63;;;10.40;;
40707;SDS011;26392;42.696;23.350;2022-09-23T05:00:00;26.23;;;10.60;;
40707;SDS011;26392;42.696;23.350;2022-09-23T05:02:26;20.98;;;10.10;;
40707;SDS011;26392;42.696;23.350;2022-09-23T05:04:52;19.60;;;9.43;;
40707;SDS011;26392;42.696;23.350;2022-09-23T05:07:17;19.40;;;9.63;;
40707;SDS011;26392;42.696;23.350;2022-09-23T05:09:43;19.92;;;10.35;;
40707;SDS011;26392;42.696;23.350;2022-09-23T05:12:09;18.42;;;10.02;;
40707;SDS011;26392;42.696;23.350;2022-09-23T05:14:35;15.95;;;8.90;;
40707;SDS011;26392;42.696;23.350;2022-09-23T05:17:00;15.13;;;8.90;;
40707;SDS011;26392;42.696;23.350;2022-09-23T05:19:25;14.13;;;8.25;;
40707;SDS011;26392;42.696;23.350;2022-09-23T05:21:51;10.65;;;7.03;;
40707;SDS011;26392;42.696;23.350;2022-09-23T05:24:16;11.23;;;6.88;;
40707;SDS011;26392;42.696;23.350;2022-09-23T05:26:42;11.05;;;7.03;;
40707;SDS011;26392;42.696;23.350;2022-09-23T05:29:07;9.52;;;6.82;;
40707;SDS011;26392;42.696;23.350;2022-09-23T05:31:33;23.33;;;7.13;;
40707;SDS011;26392;42.696;23.350;2022-09-23T05:34:02;9.23;;;6.38;;
40707;SDS011;26392;42.696;23.350;2022-09-23T05:36:29;13.00;;;7.45;;
40707;SDS011;26392;42.696;23.350;2022-09-23T05:38:56;13.38;;;7.95;;
40707;SDS011;26392;42.696;23.350;2022-09-23T05:41:22;13.15;;;8.27;;
40707;SDS011;26392;42.696;23.350;2022-09-23T05:43:50;13.35;;;7.32;;
40707;SDS011;26392;42.696;23.350;2022-09-23T05:46:21;13.05;;;7.45;;
40707;SDS011;26392;42.696;23.350;2022-09-23T05:51:19;12.45;;;7.57;;
40707;SDS011;26392;42.696;23.350;2022-09-23T05:53:46;14.50;;;8.88;;
40707;SDS011;26392;42.696;23.350;2022-09-23T05:56:17;14.95;;;8.32;;
40707;SDS011;26392;42.696;23.350;2022-09-23T05:58:44;13.13;;;8.15;;
40707;SDS011;26392;42.696;23.350;2022-09-23T06:01:13;11.40;;;7.15;;
40707;SDS011;26392;42.696;23.350;2022-09-23T06:03:44;13.02;;;7.35;;
40707;SDS011;26392;42.696;23.350;2022-09-23T06:06:11;13.90;;;8.13;;
40707;SDS011;26392;42.696;23.350;2022-09-23T06:08:38;10.88;;;6.93;;
40707;SDS011;26392;42.696;23.350;2022-09-23T06:11:05;13.95;;;7.25;;
40707;SDS011;26392;42.696;23.350;2022-09-23T06:13:33;8.90;;;6.47;;
40707;SDS011;26392;42.696;23.350;2022-09-23T06:16:02;9.98;;;6.20;;
40707;SDS011;26392;42.696;23.350;2022-09-23T06:18:31;9.38;;;6.28;;
40707;SDS011;26392;42.696;23.350;2022-09-23T06:21:01;13.13;;;6.90;;
40707;SDS011;26392;42.696;23.350;2022-09-23T06:23:27;10.88;;;6.65;;
40707;SDS011;26392;42.696;23.350;2022-09-23T06:25:53;12.18;;;6.40;;
40707;SDS011;26392;42.696;23.350;2022-09-23T06:28:23;8.60;;;5.82;;
40707;SDS011;26392;42.696;23.350;2022-09-23T06:30:48;9.95;;;6.10;;
40707;SDS011;26392;42.696;23.350;2022-09-23T06:33:14;10.98;;;5.90;;
40707;SDS011;26392;42.696;23.350;2022-09-23T06:35:39;14.18;;;6.13;;
40707;SDS011;26392;42.696;23.350;2022-09-23T06:38:05;8.35;;;5.70;;
40707;SDS011;26392;42.696;23.350;2022-09-23T06:40:30;8.88;;;6.03;;
40707;SDS011;26392;42.696;23.350;2022-09-23T06:42:57;8.00;;;5.88;;
40707;SDS011;26392;42.696;23.350;2022-09-23T06:45:23;10.20;;;6.22;;
40707;SDS011;26392;42.696;23.350;2022-09-23T06:47:59;7.60;;;5.60;;
40707;SDS011;26392;42.696;23.350;2022-09-23T06:50:25;9.77;;;5.82;;
40707;SDS011;26392;42.696;23.350;2022-09-23T06:52:55;12.05;;;6.20;;
40707;SDS011;26392;42.696;23.350;2022-09-23T06:55:26;8.77;;;6.05;;
40707;SDS011;26392;42.696;23.350;2022-09-23T06:57:53;8.15;;;5.63;;
40707;SDS011;26392;42.696;23.350;2022-09-23T07:00:19;9.77;;;6.28;;
40707;SDS011;26392;42.696;23.350;2022-09-23T07:02:45;8.43;;;5.78;;
40707;SDS011;26392;42.696;23.350;2022-09-23T07:05:11;8.75;;;5.18;;
40707;SDS011;26392;42.696;23.350;2022-09-23T07:07:37;8.40;;;5.38;;
40707;SDS011;26392;42.696;23.350;2022-09-23T07:10:04;8.68;;;5.50;;
40707;SDS011;26392;42.696;23.350;2022-09-23T07:12:31;7.57;;;4.95;;
40707;SDS011;26392;42.696;23.350;2022-09-23T07:14:57;13.60;;;5.32;;
40707;SDS011;26392;42.696;23.350;2022-09-23T07:17:23;8.73;;;5.57;;
40707;SDS011;26392;42.696;23.350;2022-09-23T07:19:49;8.88;;;5.60;;
40707;SDS011;26392;42.696;23.350;2022-09-23T07:22:15;13.18;;;5.30;;
40707;SDS011;26392;42.696;23.350;2022-09-23T07:24:42;8.55;;;5.20;;
40707;SDS011;26392;42.696;23.350;2022-09-23T07:27:08;8.25;;;5.60;;
40707;SDS011;26392;42.696;23.350;2022-09-23T07:29:33;7.05;;;4.78;;
40707;SDS011;26392;42.696;23.350;2022-09-23T07:31:59;7.90;;;5.40;;
40707;SDS011;26392;42.696;23.350;2022-09-23T07:34:24;7.85;;;5.60;;
40707;SDS011;26392;42.696;23.350;2022-09-23T07:36:50;7.15;;;5.20;;
40707;SDS011;26392;42.696;23.350;2022-09-23T07:39:18;9.80;;;5.90;;
40707;SDS011;26392;42.696;23.350;2022-09-23T07:41:43;9.38;;;5.10;;
40707;SDS011;26392;42.696;23.350;2022-09-23T07:44:09;11.35;;;5.70;;
40707;SDS011;26392;42.696;23.350;2022-09-23T07:46:36;8.20;;;5.60;;
40707;SDS011;26392;42.696;23.350;2022-09-23T07:49:02;8.15;;;5.53;;
40707;SDS011;26392;42.696;23.350;2022-09-23T07:51:33;7.22;;;4.88;;
40707;SDS011;26392;42.696;23.350;2022-09-23T07:54:00;6.30;;;4.78;;
40707;SDS011;26392;42.696;23.350;2022-09-23T07:56:26;11.73;;;5.47;;
40707;SDS011;26392;42.696;23.350;2022-09-23T07:58:54;6.25;;;4.88;;
40707;SDS011;26392;42.696;23.350;2022-09-23T08:01:30;6.80;;;4.55;;
40707;SDS011;26392;42.696;23.350;2022-09-23T08:03:57;6.45;;;4.63;;
40707;SDS011;26392;42.696;23.350;2022-09-23T08:06:26;5.53;;;4.00;;
40707;SDS011;26392;42.696;23.350;2022-09-23T08:08:51;8.98;;;3.80;;
40707;SDS011;26392;42.696;23.350;2022-09-23T08:11:17;6.97;;;4.35;;
40707;SDS011;26392;42.696;23.350;2022-09-23T08:13:42;10.93;;;5.18;;
40707;SDS011;26392;42.696;23.350;2022-09-23T08:16:08;5.35;;;4.13;;
40707;SDS011;26392;42.696;23.350;2022-09-23T08:18:34;8.77;;;4.82;;
40707;SDS011;26392;42.696;23.350;2022-09-23T08:21:00;7.20;;;3.78;;
40707;SDS011;26392;42.696;23.350;2022-09-23T08:23:25;5.55;;;3.60;;
40707;SDS011;26392;42.696;23.350;2022-09-23T08:26:01;6.38;;;4.38;;
40707;SDS011;26392;42.696;23.350;2022-09-23T08:28:27;6.47;;;3.88;;
40707;SDS011;26392;42.696;23.350;2022-09-23T08:30:53;6.88;;;3.83;;
40707;SDS011;26392;42.696;23.350;2022-09-23T08:33:19;12.70;;;4.15;;
40707;SDS011;26392;42.696;23.350;2022-09-23T08:35:45;6.30;;;4.28;;
40707;SDS011;26392;42.696;23.350;2022-09-23T08:38:10;7.03;;;4.57;;
40707;SDS011;26392;42.696;23.350;2022-09-23T08:40:36;10.10;;;4.28;;
40707;SDS011;26392;42.696;23.350;2022-09-23T08:43:05;7.68;;;4.13;;
40707;SDS011;26392;42.696;23.350;2022-09-23T08:45:31;6.65;;;4.38;;
40707;SDS011;26392;42.696;23.350;2022-09-23T08:48:06;7.90;;;4.03;;
40707;SDS011;26392;42.696;23.350;2022-09-23T08:50:39;5.45;;;3.72;;
40707;SDS011;26392;42.696;23.350;2022-09-23T08:53:11;6.82;;;2.90;;
40707;SDS011;26392;42.696;23.350;2022-09-23T08:55:48;5.22;;;3.75;;
40707;SDS011;26392;42.696;23.350;2022-09-23T09:03:44;4.47;;;3.20;;
40707;SDS011;26392;42.696;23.350;2022-09-23T09:06:21;4.82;;;3.60;;
40707;SDS011;26392;42.696;23.350;2022-09-23T09:08:59;3.80;;;3.10;;
40707;SDS011;26392;42.696;23.350;2022-09-23T09:11:33;5.35;;;3.38;;
40707;SDS011;26392;42.696;23.350;2022-09-23T09:17:05;6.88;;;3.05;;
40707;SDS011;26392;42.696;23.350;2022-09-23T09:19:47;4.90;;;3.00;;
40707;SDS011;26392;42.696;23.350;2022-09-23T09:22:21;4.15;;;2.92;;
40707;SDS011;26392;42.696;23.350;2022-09-23T09:25:23;3.65;;;2.83;;
40707;SDS011;26392;42.696;23.350;2022-09-23T09:28:00;6.18;;;3.30;;
40707;SDS011;26392;42.696;23.350;2022-09-23T09:30:28;4.25;;;2.70;;
40707;SDS011;26392;42.696;23.350;2022-09-23T09:33:00;4.63;;;2.50;;
40707;SDS011;26392;42.696;23.350;2022-09-23T09:35:33;4.60;;;2.70;;
40707;SDS011;26392;42.696;23.350;2022-09-23T09:38:02;3.83;;;2.70;;
40707;SDS011;26392;42.696;23.350;2022-09-23T09:40:30;5.22;;;2.83;;
40707;SDS011;26392;42.696;23.350;2022-09-23T09:42:56;3.17;;;2.58;;
40707;SDS011;26392;42.696;23.350;2022-09-23T09:48:22;3.28;;;2.50;;
40707;SDS011;26392;42.696;23.350;2022-09-23T09:56:01;6.68;;;2.40;;
40707;SDS011;26392;42.696;23.350;2022-09-23T09:58:46;3.42;;;2.20;;
40707;SDS011;26392;42.696;23.350;2022-09-23T10:01:32;3.88;;;2.72;;
40707;SDS011;26392;42.696;23.350;2022-09-23T10:04:05;3.55;;;2.50;;
40707;SDS011;26392;42.696;23.350;2022-09-23T10:06:42;4.87;;;3.10;;
40707;SDS011;26392;42.696;23.350;2022-09-23T10:09:31;4.15;;;3.25;;
40707;SDS011;26392;42.696;23.350;2022-09-23T10:12:07;2.80;;;2.25;;
40707;SDS011;26392;42.696;23.350;2022-09-23T10:14:39;6.72;;;2.10;;
40707;SDS011;26392;42.696;23.350;2022-09-23T10:17:05;2.03;;;1.83;;
40707;SDS011;26392;42.696;23.350;2022-09-23T10:19:33;10.57;;;6.05;;
40707;SDS011;26392;42.696;23.350;2022-09-23T10:22:02;2.85;;;2.42;;
40707;SDS011;26392;42.696;23.350;2022-09-23T10:24:33;3.00;;;2.17;;
40707;SDS011;26392;42.696;23.350;2022-09-23T10:27:02;2.55;;;1.98;;
40707;SDS011;26392;42.696;23.350;2022-09-23T10:34:40;4.95;;;2.90;;
40707;SDS011;26392;42.696;23.350;2022-09-23T10:37:17;2.30;;;2.05;;
40707;SDS011;26392;42.696;23.350;2022-09-23T10:39:51;2.85;;;2.22;;
40707;SDS011;26392;42.696;23.350;2022-09-23T10:45:38;3.83;;;2.40;;
40707;SDS011;26392;42.696;23.350;2022-09-23T10:51:16;2.63;;;2.08;;
40707;SDS011;26392;42.696;23.350;2022-09-23T10:53:58;1.90;;;1.75;;
40707;SDS011;26392;42.696;23.350;2022-09-23T11:01:33;4.28;;;1.90;;
40707;SDS011;26392;42.696;23.350;2022-09-23T11:04:24;2.22;;;1.63;;
40707;SDS011;26392;42.696;23.350;2022-09-23T11:07:24;8.18;;;2.03;;
40707;SDS011;26392;42.696;23.350;2022-09-23T11:16:23;2.35;;;1.75;;
40707;SDS011;26392;42.696;23.350;2022-09-23T11:27:02;4.80;;;1.85;;
40707;SDS011;26392;42.696;23.350;2022-09-23T11:32:46;3.35;;;1.42;;
40707;SDS011;26392;42.696;23.350;2022-09-23T11:38:10;3.10;;;1.60;;
40707;SDS011;26392;42.696;23.350;2022-09-23T11:40:40;1.48;;;1.38;;
40707;SDS011;26392;42.696;23.350;2022-09-23T11:46:24;1.70;;;1.60;;
40707;SDS011;26392;42.696;23.350;2022-09-23T11:51:40;2.08;;;1.38;;
40707;SDS011;26392;42.696;23.350;2022-09-23T11:54:24;1.70;;;1.42;;
40707;SDS011;26392;42.696;23.350;2022-09-23T11:56:56;2.03;;;1.77;;
40707;SDS011;26392;42.696;23.350;2022-09-23T11:59:41;2.00;;;1.60;;
40707;SDS011;26392;42.696;23.350;2022-09-23T12:04:54;1.60;;;1.50;;
40707;SDS011;26392;42.696;23.350;2022-09-23T12:07:43;7.20;;;2.20;;
40707;SDS011;26392;42.696;23.350;2022-09-23T12:10:18;2.78;;;2.00;;
40707;SDS011;26392;42.696;23.350;2022-09-23T12:12:57;3.63;;;2.15;;
40707;SDS011;26392;42.696;23.350;2022-09-23T12:18:10;3.42;;;2.20;;
40707;SDS011;26392;42.696;23.350;2022-09-23T12:26:11;4.18;;;1.55;;
40707;SDS011;26392;42.696;23.350;2022-09-23T12:28:46;3.22;;;1.92;;
40707;SDS011;26392;42.696;23.350;2022-09-23T12:31:15;2.10;;;1.45;;
40707;SDS011;26392;42.696;23.350;2022-09-23T12:33:47;2.28;;;1.50;;
40707;SDS011;26392;42.696;23.350;2022-09-23T12:36:14;2.33;;;1.63;;
40707;SDS011;26392;42.696;23.350;2022-09-23T12:38:50;3.20;;;1.90;;
40707;SDS011;26392;42.696;23.350;2022-09-23T12:41:30;2.13;;;1.90;;
40707;SDS011;26392;42.696;23.350;2022-09-23T12:46:44;3.45;;;2.20;;
40707;SDS011;26392;42.696;23.350;2022-09-23T12:49:21;4.22;;;2.17;;
40707;SDS011;26392;42.696;23.350;2022-09-23T12:54:36;3.58;;;2.15;;
40707;SDS011;26392;42.696;23.350;2022-09-23T12:57:04;3.90;;;2.35;;
40707;SDS011;26392;42.696;23.350;2022-09-23T12:59:53;2.47;;;1.73;;
40707;SDS011;26392;42.696;23.350;2022-09-23T13:02:25;5.30;;;2.20;;
40707;SDS011;26392;42.696;23.350;2022-09-23T13:04:56;2.75;;;2.22;;
40707;SDS011;26392;42.696;23.350;2022-09-23T13:07:46;6.65;;;2.17;;
40707;SDS011;26392;42.696;23.350;2022-09-23T13:12:39;4.20;;;2.13;;
40707;SDS011;26392;42.696;23.350;2022-09-23T13:15:14;1.70;;;1.55;;
40707;SDS011;26392;42.696;23.350;2022-09-23T13:17:42;2.38;;;1.88;;
40707;SDS011;26392;42.696;23.350;2022-09-23T13:25:19;1.45;;;1.25;;
40707;SDS011;26392;42.696;23.350;2022-09-23T13:27:49;1.98;;;1.52;;
40707;SDS011;26392;42.696;23.350;2022-09-23T13:30:24;1.70;;;1.60;;
40707;SDS011;26392;42.696;23.350;2022-09-23T13:35:31;2.78;;;1.80;;
40707;SDS011;26392;42.696;23.350;2022-09-23T13:38:08;2.55;;;1.83;;
40707;SDS011;26392;42.696;23.350;2022-09-23T13:40:44;2.35;;;1.90;;
40707;SDS011;26392;42.696;23.350;2022-09-23T13:43:53;1.98;;;1.67;;
40707;SDS011;26392;42.696;23.350;2022-09-23T13:46:03;1.70;;;1.60;;
40707;SDS011;26392;42.696;23.350;2022-09-23T13:48:37;2.10;;;1.80;;
40707;SDS011;26392;42.696;23.350;2022-09-23T13:51:05;1.95;;;1.60;;
40707;SDS011;26392;42.696;23.350;2022-09-23T13:53:34;2.67;;;1.70;;
40707;SDS011;26392;42.696;23.350;2022-09-23T13:58:37;4.72;;;1.88;;
40707;SDS011;26392;42.696;23.350;2022-09-23T14:01:02;3.03;;;1.90;;
40707;SDS011;26392;42.696;23.350;2022-09-23T14:03:35;2.00;;;1.70;;
40707;SDS011;26392;42.696;23.350;2022-09-23T14:06:04;2.03;;;1.80;;
40707;SDS011;26392;42.696;23.350;2022-09-23T14:08:46;1.83;;;1.70;;
40707;SDS011;26392;42.696;23.350;2022-09-23T14:11:32;2.00;;;1.80;;
40707;SDS011;26392;42.696;23.350;2022-09-23T14:13:59;2.75;;;1.70;;
40707;SDS011;26392;42.696;23.350;2022-09-23T14:16:31;2.00;;;1.60;;
40707;SDS011;26392;42.696;23.350;2022-09-23T14:19:01;3.75;;;1.90;;
40707;SDS011;26392;42.696;23.350;2022-09-23T14:26:45;1.88;;;1.60;;
40707;SDS011;26392;42.696;23.350;2022-09-23T14:29:17;1.92;;;1.80;;
40707;SDS011;26392;42.696;23.350;2022-09-23T14:31:50;2.90;;;1.80;;
40707;SDS011;26392;42.696;23.350;2022-09-23T14:42:42;4.03;;;1.98;;
40707;SDS011;26392;42.696;23.350;2022-09-23T14:45:14;1.80;;;1.65;;
40707;SDS011;26392;42.696;23.350;2022-09-23T14:47:44;3.22;;;2.00;;
40707;SDS011;26392;42.696;23.350;2022-09-23T14:50:19;3.72;;;2.42;;
40707;SDS011;26392;42.696;23.350;2022-09-23T14:55:51;2.30;;;1.98;;
40707;SDS011;26392;42.696;23.350;2022-09-23T14:58:22;2.55;;;2.25;;
40707;SDS011;26392;42.696;23.350;2022-09-23T15:03:23;1.88;;;1.67;;
40707;SDS011;26392;42.696;23.350;2022-09-23T15:05:49;3.35;;;2.20;;
40707;SDS011;26392;42.696;23.350;2022-09-23T15:08:22;3.05;;;2.47;;
40707;SDS011;26392;42.696;23.350;2022-09-23T15:10:50;2.13;;;1.80;;
40707;SDS011;26392;42.696;23.350;2022-09-23T15:13:20;7.72;;;2.40;;
40707;SDS011;26392;42.696;23.350;2022-09-23T15:15:52;3.53;;;2.25;;
40707;SDS011;26392;42.696;23.350;2022-09-23T15:18:25;3.80;;;2.40;;
40707;SDS011;26392;42.696;23.350;2022-09-23T15:21:01;3.08;;;2.22;;
40707;SDS011;26392;42.696;23.350;2022-09-23T15:23:34;7.18;;;2.30;;
40707;SDS011;26392;42.696;23.350;2022-09-23T15:26:08;5.35;;;2.58;;
40707;SDS011;26392;42.696;23.350;2022-09-23T15:28:38;6.30;;;2.83;;
40707;SDS011;26392;42.696;23.350;2022-09-23T15:31:03;3.35;;;2.33;;
40707;SDS011;26392;42.696;23.350;2022-09-23T15:33:29;4.35;;;2.30;;
40707;SDS011;26392;42.696;23.350;2022-09-23T15:35:55;3.40;;;2.60;;
40707;SDS011;26392;42.696;23.350;2022-09-23T15:38:22;4.05;;;2.30;;
40707;SDS011;26392;42.696;23.350;2022-09-23T15:40:48;3.28;;;2.50;;
40707;SDS011;26392;42.696;23.350;2022-09-23T15:43:14;6.32;;;2.17;;
40707;SDS011;26392;42.696;23.350;2022-09-23T15:45:54;6.57;;;3.22;;
40707;SDS011;26392;42.696;23.350;2022-09-23T15:50:50;4.88;;;2.40;;
40707;SDS011;26392;42.696;23.350;2022-09-23T15:53:18;2.38;;;2.17;;
40707;SDS011;26392;42.696;23.350;2022-09-23T15:55:47;3.25;;;2.28;;
40707;SDS011;26392;42.696;23.350;2022-09-23T15:58:19;3.40;;;2.30;;
40707;SDS011;26392;42.696;23.350;2022-09-23T16:00:46;4.10;;;2.33;;
40707;SDS011;26392;42.696;23.350;2022-09-23T16:03:16;4.82;;;2.63;;
40707;SDS011;26392;42.696;23.350;2022-09-23T16:05:43;4.60;;;2.10;;
40707;SDS011;26392;42.696;23.350;2022-09-23T16:08:11;2.47;;;2.08;;
40707;SDS011;26392;42.696;23.350;2022-09-23T16:10:37;3.92;;;2.20;;
40707;SDS011;26392;42.696;23.350;2022-09-23T16:13:03;3.58;;;2.25;;
40707;SDS011;26392;42.696;23.350;2022-09-23T16:15:31;5.38;;;2.70;;
40707;SDS011;26392;42.696;23.350;2022-09-23T16:17:58;4.00;;;2.60;;
40707;SDS011;26392;42.696;23.350;2022-09-23T16:20:24;3.38;;;2.45;;
40707;SDS011;26392;42.696;23.350;2022-09-23T16:25:26;6.20;;;2.88;;
40707;SDS011;26392;42.696;23.350;2022-09-23T16:27:54;5.15;;;3.08;;
40707;SDS011;26392;42.696;23.350;2022-09-23T16:30:21;5.82;;;3.20;;
40707;SDS011;26392;42.696;23.350;2022-09-23T16:32:48;3.15;;;2.40;;
40707;SDS011;26392;42.696;23.350;2022-09-23T16:35:15;3.58;;;2.65;;
40707;SDS011;26392;42.696;23.350;2022-09-23T16:37:45;7.60;;;2.78;;
40707;SDS011;26392;42.696;23.350;2022-09-23T16:40:13;3.22;;;2.50;;
40707;SDS011;26392;42.696;23.350;2022-09-23T16:42:43;3.90;;;2.28;;
40707;SDS011;26392;42.696;23.350;2022-09-23T16:45:10;4.53;;;2.42;;
40707;SDS011;26392;42.696;23.350;2022-09-23T16:47:45;3.00;;;2.03;;
40707;SDS011;26392;42.696;23.350;2022-09-23T16:50:13;6.05;;;2.78;;
40707;SDS011;26392;42.696;23.350;2022-09-23T16:52:39;4.53;;;2.80;;
40707;SDS011;26392;42.696;23.350;2022-09-23T16:57:51;2.63;;;2.35;;
40707;SDS011;26392;42.696;23.350;2022-09-23T17:00:17;4.80;;;2.28;;
40707;SDS011;26392;42.696;23.350;2022-09-23T17:03:03;7.00;;;2.60;;
40707;SDS011;26392;42.696;23.350;2022-09-23T17:05:47;4.55;;;2.70;;
40707;SDS011;26392;42.696;23.350;2022-09-23T17:08:13;5.78;;;2.97;;
40707;SDS011;26392;42.696;23.350;2022-09-23T17:10:40;5.20;;;3.08;;
40707;SDS011;26392;42.696;23.350;2022-09-23T17:13:07;5.57;;;3.50;;
40707;SDS011;26392;42.696;23.350;2022-09-23T17:15:36;8.40;;;3.50;;
40707;SDS011;26392;42.696;23.350;2022-09-23T17:18:03;5.50;;;3.90;;
40707;SDS011;26392;42.696;23.350;2022-09-23T17:20:29;8.20;;;3.58;;
40707;SDS011;26392;42.696;23.350;2022-09-23T17:22:55;6.25;;;3.60;;
40707;SDS011;26392;42.696;23.350;2022-09-23T17:25:20;7.20;;;3.60;;
40707;SDS011;26392;42.696;23.350;2022-09-23T17:27:49;7.45;;;3.92;;
40707;SDS011;26392;42.696;23.350;2022-09-23T17:30:15;5.97;;;3.25;;
40707;SDS011;26392;42.696;23.350;2022-09-23T17:32:40;10.57;;;4.25;;
40707;SDS011;26392;42.696;23.350;2022-09-23T17:35:06;11.18;;;4.68;;
40707;SDS011;26392;42.696;23.350;2022-09-23T17:37:34;7.00;;;4.40;;
40707;SDS011;26392;42.696;23.350;2022-09-23T17:40:00;5.97;;;3.53;;
40707;SDS011;26392;42.696;23.350;2022-09-23T17:42:25;6.78;;;4.03;;
40707;SDS011;26392;42.696;23.350;2022-09-23T17:44:51;6.72;;;3.97;;
40707;SDS011;26392;42.696;23.350;2022-09-23T17:47:20;10.20;;;4.80;;
40707;SDS011;26392;42.696;23.350;2022-09-23T17:49:46;7.15;;;4.18;;
40707;SDS011;26392;42.696;23.350;2022-09-23T17:52:13;7.13;;;3.97;;
40707;SDS011;26392;42.696;23.350;2022-09-23T17:54:39;7.00;;;3.85;;